sensor_id;sensor_type;location;lat;lon;timestamp;temperature;humidity
44723;DHT22;30451;48.638;10.624;2023-08-24T00:00:39;29.20;54.00
44723;DHT22;30451;48.638;10.624;2023-08-24T00:03:04;29.30;54.10
44723;DHT22;30451;48.638;10.624;2023-08-24T00:05:33;29.20;54.00
44723;DHT22;30451;48.638;10.624;2023-08-24T00:08:00;29.20;54.00
44723;DHT22;30451;48.638;10.624;2023-08-24T00:10:25;29.20;54.00
44723;DHT22;30451;48.638;10.624;2023-08-24T00:12:51;29.20;54.00
44723;DHT22;30451;48.638;10.624;2023-08-24T00:15:17;29.20;54.00
44723;DHT22;30451;48.638;10.624;2023-08-24T00:17:42;29.20;54.00
44723;DHT22;30451;48.638;10.624;2023-08-24T00:20:08;29.20;54.00
44723;DHT22;30451;48.638;10.624;2023-08-24T00:22:40;29.20;54.00
44723;DHT22;30451;48.638;10.624;2023-08-24T00:25:06;29.20;54.00
44723;DHT22;30451;48.638;10.624;2023-08-24T00:27:31;29.20;54.00
44723;DHT22;30451;48.638;10.624;2023-08-24T00:29:57;29.20;54.00
44723;DHT22;30451;48.638;10.624;2023-08-24T00:32:23;29.20;54.00
44723;DHT22;30451;48.638;10.624;2023-08-24T00:34:49;29.20;54.00
44723;DHT22;30451;48.638;10.624;2023-08-24T00:37:14;29.20;54.00
44723;DHT22;30451;48.638;10.624;2023-08-24T00:39:40;29.20;54.00
44723;DHT22;30451;48.638;10.624;2023-08-24T00:42:06;29.20;54.00
44723;DHT22;30451;48.638;10.624;2023-08-24T00:44:32;29.20;54.00
44723;DHT22;30451;48.638;10.624;2023-08-24T00:46:58;29.20;54.00
44723;DHT22;30451;48.638;10.624;2023-08-24T00:49:26;29.10;53.90
44723;DHT22;30451;48.638;10.624;2023-08-24T00:51:51;29.20;54.00
44723;DHT22;30451;48.638;10.624;2023-08-24T00:54:17;29.20;54.00
44723;DHT22;30451;48.638;10.624;2023-08-24T00:56:44;29.20;54.00
44723;DHT22;30451;48.638;10.624;2023-08-24T00:59:09;29.20;54.00
44723;DHT22;30451;48.638;10.624;2023-08-24T01:01:35;29.20;54.00
44723;DHT22;30451;48.638;10.624;2023-08-24T01:04:01;29.10;53.90
44723;DHT22;30451;48.638;10.624;2023-08-24T01:06:28;29.10;54.00
44723;DHT22;30451;48.638;10.624;2023-08-24T01:08:54;29.10;54.00
44723;DHT22;30451;48.638;10.624;2023-08-24T01:11:25;29.10;54.00
44723;DHT22;30451;48.638;10.624;2023-08-24T01:13:59;29.10;54.00
44723;DHT22;30451;48.638;10.624;2023-08-24T01:16:30;29.20;54.00
44723;DHT22;30451;48.638;10.624;2023-08-24T01:18:59;29.10;54.00
44723;DHT22;30451;48.638;10.624;2023-08-24T01:21:26;29.10;54.00
44723;DHT22;30451;48.638;10.624;2023-08-24T01:24:53;29.20;54.00
44723;DHT22;30451;48.638;10.624;2023-08-24T01:27:12;29.10;53.90
44723;DHT22;30451;48.638;10.624;2023-08-24T01:29:38;29.10;54.00
44723;DHT22;30451;48.638;10.624;2023-08-24T01:32:09;29.10;54.00
44723;DHT22;30451;48.638;10.624;2023-08-24T01:34:37;29.10;54.00
44723;DHT22;30451;48.638;10.624;2023-08-24T01:37:04;29.10;54.00
44723;DHT22;30451;48.638;10.624;2023-08-24T01:39:38;29.10;54.00
44723;DHT22;30451;48.638;10.624;2023-08-24T01:42:10;29.10;53.90
44723;DHT22;30451;48.638;10.624;2023-08-24T01:44:39;29.10;54.00
44723;DHT22;30451;48.638;10.624;2023-08-24T01:47:08;29.10;53.90
44723;DHT22;30451;48.638;10.624;2023-08-24T01:49:37;29.10;54.00
44723;DHT22;30451;48.638;10.624;2023-08-24T01:52:03;29.10;54.00
44723;DHT22;30451;48.638;10.624;2023-08-24T01:54:29;29.10;54.00
44723;DHT22;30451;48.638;10.624;2023-08-24T01:56:56;29.10;54.00
44723;DHT22;30451;48.638;10.624;2023-08-24T01:59:21;29.10;54.00
44723;DHT22;30451;48.638;10.624;2023-08-24T02:01:47;29.10;54.00
44723;DHT22;30451;48.638;10.624;2023-08-24T02:04:13;29.10;54.00
44723;DHT22;30451;48.638;10.624;2023-08-24T02:06:39;29.10;54.50
44723;DHT22;30451;48.638;10.624;2023-08-24T02:09:04;29.10;54.00
44723;DHT22;30451;48.638;10.624;2023-08-24T02:11:30;29.10;54.00
44723;DHT22;30451;48.638;10.624;2023-08-24T02:13:56;29.10;54.00
44723;DHT22;30451;48.638;10.624;2023-08-24T02:16:22;29.10;54.00
44723;DHT22;30451;48.638;10.624;2023-08-24T02:18:48;29.10;54.00
44723;DHT22;30451;48.638;10.624;2023-08-24T02:21:13;29.10;54.00
44723;DHT22;30451;48.638;10.624;2023-08-24T02:23:40;29.10;54.00
44723;DHT22;30451;48.638;10.624;2023-08-24T02:26:06;29.10;54.00
44723;DHT22;30451;48.638;10.624;2023-08-24T02:28:33;29.00;53.90
44723;DHT22;30451;48.638;10.624;2023-08-24T02:31:03;29.10;54.00
44723;DHT22;30451;48.638;10.624;2023-08-24T02:33:29;29.00;53.90
44723;DHT22;30451;48.638;10.624;2023-08-24T02:35:55;29.10;54.00
44723;DHT22;30451;48.638;10.624;2023-08-24T02:38:20;29.00;53.90
44723;DHT22;30451;48.638;10.624;2023-08-24T02:40:46;29.10;54.00
44723;DHT22;30451;48.638;10.624;2023-08-24T02:43:11;29.10;54.00
44723;DHT22;30451;48.638;10.624;2023-08-24T02:45:38;29.00;53.90
44723;DHT22;30451;48.638;10.624;2023-08-24T02:48:04;29.00;53.90
44723;DHT22;30451;48.638;10.624;2023-08-24T02:50:30;29.00;53.90
44723;DHT22;30451;48.638;10.624;2023-08-24T02:52:55;29.00;53.90
44723;DHT22;30451;48.638;10.624;2023-08-24T02:55:24;29.00;53.90
44723;DHT22;30451;48.638;10.624;2023-08-24T02:57:49;29.10;54.00
44723;DHT22;30451;48.638;10.624;2023-08-24T03:00:15;29.00;53.90
44723;DHT22;30451;48.638;10.624;2023-08-24T03:02:41;29.00;53.90
44723;DHT22;30451;48.638;10.624;2023-08-24T03:05:07;29.00;53.90
44723;DHT22;30451;48.638;10.624;2023-08-24T03:07:33;29.10;54.00
44723;DHT22;30451;48.638;10.624;2023-08-24T03:09:58;29.00;53.90
44723;DHT22;30451;48.638;10.624;2023-08-24T03:12:24;29.00;53.90
44723;DHT22;30451;48.638;10.624;2023-08-24T03:14:52;29.00;53.90
44723;DHT22;30451;48.638;10.624;2023-08-24T03:17:19;29.00;53.90
44723;DHT22;30451;48.638;10.624;2023-08-24T03:19:44;29.00;53.90
44723;DHT22;30451;48.638;10.624;2023-08-24T03:22:10;29.00;52.70
44723;DHT22;30451;48.638;10.624;2023-08-24T03:24:35;29.00;50.90
44723;DHT22;30451;48.638;10.624;2023-08-24T03:27:02;28.90;49.80
44723;DHT22;30451;48.638;10.624;2023-08-24T03:29:27;28.90;49.10
44723;DHT22;30451;48.638;10.624;2023-08-24T03:31:53;28.90;48.70
44723;DHT22;30451;48.638;10.624;2023-08-24T03:34:19;28.90;48.70
44723;DHT22;30451;48.638;10.624;2023-08-24T03:36:46;28.80;48.50
44723;DHT22;30451;48.638;10.624;2023-08-24T03:39:13;28.90;48.40
44723;DHT22;30451;48.638;10.624;2023-08-24T03:41:39;28.80;48.20
44723;DHT22;30451;48.638;10.624;2023-08-24T03:44:05;28.70;48.00
44723;DHT22;30451;48.638;10.624;2023-08-24T03:46:31;28.70;47.80
44723;DHT22;30451;48.638;10.624;2023-08-24T03:48:56;28.60;47.40
44723;DHT22;30451;48.638;10.624;2023-08-24T03:51:22;28.60;47.50
44723;DHT22;30451;48.638;10.624;2023-08-24T03:53:48;28.50;47.40
44723;DHT22;30451;48.638;10.624;2023-08-24T03:56:13;28.50;47.40
44723;DHT22;30451;48.638;10.624;2023-08-24T03:58:39;28.40;47.60
44723;DHT22;30451;48.638;10.624;2023-08-24T04:01:04;28.40;47.50
44723;DHT22;30451;48.638;10.624;2023-08-24T04:03:32;28.30;47.60
44723;DHT22;30451;48.638;10.624;2023-08-24T04:05:57;28.30;47.70
44723;DHT22;30451;48.638;10.624;2023-08-24T04:08:23;28.20;47.70
44723;DHT22;30451;48.638;10.624;2023-08-24T04:10:49;28.20;47.80
44723;DHT22;30451;48.638;10.624;2023-08-24T04:13:14;28.20;47.80
44723;DHT22;30451;48.638;10.624;2023-08-24T04:15:40;28.10;47.90
44723;DHT22;30451;48.638;10.624;2023-08-24T04:18:06;28.10;48.00
44723;DHT22;30451;48.638;10.624;2023-08-24T04:20:31;28.10;48.00
44723;DHT22;30451;48.638;10.624;2023-08-24T04:22:57;28.10;48.00
44723;DHT22;30451;48.638;10.624;2023-08-24T04:25:22;28.00;47.90
44723;DHT22;30451;48.638;10.624;2023-08-24T04:27:48;28.00;48.00
44723;DHT22;30451;48.638;10.624;2023-08-24T04:30:14;28.00;48.00
44723;DHT22;30451;48.638;10.624;2023-08-24T04:32:40;27.90;48.00
44723;DHT22;30451;48.638;10.624;2023-08-24T04:35:06;27.90;48.00
44723;DHT22;30451;48.638;10.624;2023-08-24T04:37:33;27.80;48.10
44723;DHT22;30451;48.638;10.624;2023-08-24T04:39:58;27.80;48.10
44723;DHT22;30451;48.638;10.624;2023-08-24T04:42:24;27.80;48.20
44723;DHT22;30451;48.638;10.624;2023-08-24T04:44:51;27.80;48.30
44723;DHT22;30451;48.638;10.624;2023-08-24T04:47:16;27.70;48.20
44723;DHT22;30451;48.638;10.624;2023-08-24T04:49:42;27.70;48.30
44723;DHT22;30451;48.638;10.624;2023-08-24T04:52:07;27.60;48.40
44723;DHT22;30451;48.638;10.624;2023-08-24T04:54:33;27.60;48.50
44723;DHT22;30451;48.638;10.624;2023-08-24T04:56:59;27.60;48.50
44723;DHT22;30451;48.638;10.624;2023-08-24T04:59:25;27.50;48.50
44723;DHT22;30451;48.638;10.624;2023-08-24T05:01:53;27.50;49.10
44723;DHT22;30451;48.638;10.624;2023-08-24T05:04:19;27.50;48.70
44723;DHT22;30451;48.638;10.624;2023-08-24T05:06:44;27.40;48.70
44723;DHT22;30451;48.638;10.624;2023-08-24T05:09:10;27.40;48.80
44723;DHT22;30451;48.638;10.624;2023-08-24T05:11:36;27.40;48.80
44723;DHT22;30451;48.638;10.624;2023-08-24T05:14:01;27.40;48.90
44723;DHT22;30451;48.638;10.624;2023-08-24T05:16:27;27.30;48.80
44723;DHT22;30451;48.638;10.624;2023-08-24T05:18:53;27.30;48.80
44723;DHT22;30451;48.638;10.624;2023-08-24T05:21:19;27.30;48.90
44723;DHT22;30451;48.638;10.624;2023-08-24T05:23:44;27.30;49.10
44723;DHT22;30451;48.638;10.624;2023-08-24T05:26:10;27.30;49.20
44723;DHT22;30451;48.638;10.624;2023-08-24T05:28:35;27.30;49.30
44723;DHT22;30451;48.638;10.624;2023-08-24T05:31:01;27.30;49.90
44723;DHT22;30451;48.638;10.624;2023-08-24T05:33:27;27.20;49.40
44723;DHT22;30451;48.638;10.624;2023-08-24T05:35:53;27.20;49.50
44723;DHT22;30451;48.638;10.624;2023-08-24T05:38:19;27.20;49.70
44723;DHT22;30451;48.638;10.624;2023-08-24T05:40:47;27.10;49.80
44723;DHT22;30451;48.638;10.624;2023-08-24T05:43:13;27.10;50.00
44723;DHT22;30451;48.638;10.624;2023-08-24T05:45:39;27.10;50.20
44723;DHT22;30451;48.638;10.624;2023-08-24T05:48:06;27.10;50.40
44723;DHT22;30451;48.638;10.624;2023-08-24T05:50:32;27.10;50.60
44723;DHT22;30451;48.638;10.624;2023-08-24T05:52:58;27.10;50.80
44723;DHT22;30451;48.638;10.624;2023-08-24T05:55:24;27.00;51.00
44723;DHT22;30451;48.638;10.624;2023-08-24T05:57:49;27.00;51.30
44723;DHT22;30451;48.638;10.624;2023-08-24T06:00:15;27.00;51.40
44723;DHT22;30451;48.638;10.624;2023-08-24T06:02:41;27.00;51.50
44723;DHT22;30451;48.638;10.624;2023-08-24T06:05:07;26.90;51.60
44723;DHT22;30451;48.638;10.624;2023-08-24T06:07:34;26.90;51.80
44723;DHT22;30451;48.638;10.624;2023-08-24T06:09:59;26.90;52.00
44723;DHT22;30451;48.638;10.624;2023-08-24T06:12:25;26.90;52.00
44723;DHT22;30451;48.638;10.624;2023-08-24T06:14:51;26.90;52.00
44723;DHT22;30451;48.638;10.624;2023-08-24T06:17:16;26.80;51.90
44723;DHT22;30451;48.638;10.624;2023-08-24T06:19:42;26.80;52.30
44723;DHT22;30451;48.638;10.624;2023-08-24T06:22:08;26.80;51.70
44723;DHT22;30451;48.638;10.624;2023-08-24T06:24:34;26.80;51.70
44723;DHT22;30451;48.638;10.624;2023-08-24T06:27:00;26.80;51.80
44723;DHT22;30451;48.638;10.624;2023-08-24T06:29:28;26.80;51.90
44723;DHT22;30451;48.638;10.624;2023-08-24T06:31:54;26.70;51.90
44723;DHT22;30451;48.638;10.624;2023-08-24T06:34:20;26.70;52.00
44723;DHT22;30451;48.638;10.624;2023-08-24T06:36:46;26.70;52.00
44723;DHT22;30451;48.638;10.624;2023-08-24T06:39:12;26.70;52.20
44723;DHT22;30451;48.638;10.624;2023-08-24T06:41:38;26.70;52.30
44723;DHT22;30451;48.638;10.624;2023-08-24T06:44:04;26.60;52.40
44723;DHT22;30451;48.638;10.624;2023-08-24T06:46:29;26.60;52.40
44723;DHT22;30451;48.638;10.624;2023-08-24T06:48:55;26.60;52.50
44723;DHT22;30451;48.638;10.624;2023-08-24T06:51:20;26.60;52.60
44723;DHT22;30451;48.638;10.624;2023-08-24T06:53:46;26.60;52.70
44723;DHT22;30451;48.638;10.624;2023-08-24T06:56:14;26.50;52.70
44723;DHT22;30451;48.638;10.624;2023-08-24T06:58:49;26.50;52.80
44723;DHT22;30451;48.638;10.624;2023-08-24T07:01:14;26.50;52.80
44723;DHT22;30451;48.638;10.624;2023-08-24T07:03:41;26.50;52.80
44723;DHT22;30451;48.638;10.624;2023-08-24T07:06:07;26.60;52.80
44723;DHT22;30451;48.638;10.624;2023-08-24T07:08:33;26.50;52.70
44723;DHT22;30451;48.638;10.624;2023-08-24T07:10:59;26.60;52.80
44723;DHT22;30451;48.638;10.624;2023-08-24T07:13:25;26.50;52.70
44723;DHT22;30451;48.638;10.624;2023-08-24T07:15:52;26.60;52.80
44723;DHT22;30451;48.638;10.624;2023-08-24T07:18:17;26.60;52.80
44723;DHT22;30451;48.638;10.624;2023-08-24T07:20:43;26.60;52.80
44723;DHT22;30451;48.638;10.624;2023-08-24T07:23:09;26.60;52.80
44723;DHT22;30451;48.638;10.624;2023-08-24T07:25:34;26.60;52.80
44723;DHT22;30451;48.638;10.624;2023-08-24T07:28:00;26.60;52.80
44723;DHT22;30451;48.638;10.624;2023-08-24T07:30:28;26.60;53.30
44723;DHT22;30451;48.638;10.624;2023-08-24T07:32:54;26.60;52.80
44723;DHT22;30451;48.638;10.624;2023-08-24T07:35:20;26.60;52.80
44723;DHT22;30451;48.638;10.624;2023-08-24T07:37:47;26.60;52.80
44723;DHT22;30451;48.638;10.624;2023-08-24T07:40:14;26.60;52.80
44723;DHT22;30451;48.638;10.624;2023-08-24T07:42:50;26.70;52.80
44723;DHT22;30451;48.638;10.624;2023-08-24T07:45:16;26.60;52.80
44723;DHT22;30451;48.638;10.624;2023-08-24T07:47:42;26.60;52.80
44723;DHT22;30451;48.638;10.624;2023-08-24T07:50:09;26.70;52.80
44723;DHT22;30451;48.638;10.624;2023-08-24T07:52:39;26.70;52.90
44723;DHT22;30451;48.638;10.624;2023-08-24T07:55:05;26.70;52.80
44723;DHT22;30451;48.638;10.624;2023-08-24T07:57:36;26.70;52.80
44723;DHT22;30451;48.638;10.624;2023-08-24T08:00:05;26.70;52.90
44723;DHT22;30451;48.638;10.624;2023-08-24T08:02:31;26.70;52.90
44723;DHT22;30451;48.638;10.624;2023-08-24T08:05:01;26.70;52.90
44723;DHT22;30451;48.638;10.624;2023-08-24T08:07:27;26.70;52.90
44723;DHT22;30451;48.638;10.624;2023-08-24T08:09:52;26.70;52.90
44723;DHT22;30451;48.638;10.624;2023-08-24T08:12:18;26.70;52.90
44723;DHT22;30451;48.638;10.624;2023-08-24T08:14:44;26.70;52.90
44723;DHT22;30451;48.638;10.624;2023-08-24T08:17:09;26.70;52.90
44723;DHT22;30451;48.638;10.624;2023-08-24T08:19:35;26.70;52.90
44723;DHT22;30451;48.638;10.624;2023-08-24T08:22:03;26.70;53.00
44723;DHT22;30451;48.638;10.624;2023-08-24T08:24:29;26.70;52.90
44723;DHT22;30451;48.638;10.624;2023-08-24T08:26:54;26.80;53.00
44723;DHT22;30451;48.638;10.624;2023-08-24T08:29:20;26.80;53.00
44723;DHT22;30451;48.638;10.624;2023-08-24T08:31:45;26.80;53.00
44723;DHT22;30451;48.638;10.624;2023-08-24T08:34:11;26.80;53.00
44723;DHT22;30451;48.638;10.624;2023-08-24T08:36:37;26.80;53.00
44723;DHT22;30451;48.638;10.624;2023-08-24T08:39:03;26.80;53.00
44723;DHT22;30451;48.638;10.624;2023-08-24T08:41:33;26.80;53.00
44723;DHT22;30451;48.638;10.624;2023-08-24T08:44:06;26.80;53.00
44723;DHT22;30451;48.638;10.624;2023-08-24T08:46:35;26.70;53.50
44723;DHT22;30451;48.638;10.624;2023-08-24T08:49:01;26.80;53.50
44723;DHT22;30451;48.638;10.624;2023-08-24T08:51:29;26.80;53.00
44723;DHT22;30451;48.638;10.624;2023-08-24T08:53:55;26.80;53.10
44723;DHT22;30451;48.638;10.624;2023-08-24T08:56:21;26.80;53.00
44723;DHT22;30451;48.638;10.624;2023-08-24T08:58:48;26.80;53.00
44723;DHT22;30451;48.638;10.624;2023-08-24T09:01:15;26.80;53.10
44723;DHT22;30451;48.638;10.624;2023-08-24T09:03:43;26.80;53.10
44723;DHT22;30451;48.638;10.624;2023-08-24T09:06:09;26.80;53.00
44723;DHT22;30451;48.638;10.624;2023-08-24T09:08:35;26.90;53.10
44723;DHT22;30451;48.638;10.624;2023-08-24T09:11:01;26.90;53.10
44723;DHT22;30451;48.638;10.624;2023-08-24T09:13:28;26.90;53.10
44723;DHT22;30451;48.638;10.624;2023-08-24T09:15:56;26.90;53.10
44723;DHT22;30451;48.638;10.624;2023-08-24T09:18:37;26.90;53.10
44723;DHT22;30451;48.638;10.624;2023-08-24T09:21:14;26.90;53.10
44723;DHT22;30451;48.638;10.624;2023-08-24T09:23:44;26.90;53.10
44723;DHT22;30451;48.638;10.624;2023-08-24T09:26:13;26.90;53.10
44723;DHT22;30451;48.638;10.624;2023-08-24T09:28:42;26.90;53.10
44723;DHT22;30451;48.638;10.624;2023-08-24T09:31:11;26.90;53.10
44723;DHT22;30451;48.638;10.624;2023-08-24T09:33:36;26.90;53.10
44723;DHT22;30451;48.638;10.624;2023-08-24T09:36:06;26.90;53.10
44723;DHT22;30451;48.638;10.624;2023-08-24T09:38:31;26.90;53.10
44723;DHT22;30451;48.638;10.624;2023-08-24T09:40:57;26.90;53.10
44723;DHT22;30451;48.638;10.624;2023-08-24T09:43:23;26.90;53.10
44723;DHT22;30451;48.638;10.624;2023-08-24T09:45:52;26.90;53.20
44723;DHT22;30451;48.638;10.624;2023-08-24T09:48:18;27.00;53.30
44723;DHT22;30451;48.638;10.624;2023-08-24T09:50:51;27.00;53.20
44723;DHT22;30451;48.638;10.624;2023-08-24T09:53:21;27.00;53.30
44723;DHT22;30451;48.638;10.624;2023-08-24T09:56:00;27.00;53.30
44723;DHT22;30451;48.638;10.624;2023-08-24T09:58:27;27.00;53.80
44723;DHT22;30451;48.638;10.624;2023-08-24T10:00:54;27.00;53.30
44723;DHT22;30451;48.638;10.624;2023-08-24T10:03:26;27.00;53.30
44723;DHT22;30451;48.638;10.624;2023-08-24T10:05:54;27.00;53.30
44723;DHT22;30451;48.638;10.624;2023-08-24T10:08:32;27.00;53.30
44723;DHT22;30451;48.638;10.624;2023-08-24T10:11:00;27.00;53.30
44723;DHT22;30451;48.638;10.624;2023-08-24T10:16:07;27.00;53.30
44723;DHT22;30451;48.638;10.624;2023-08-24T10:18:33;27.00;53.40
44723;DHT22;30451;48.638;10.624;2023-08-24T10:21:00;27.00;53.40
44723;DHT22;30451;48.638;10.624;2023-08-24T10:23:29;27.00;53.40
44723;DHT22;30451;48.638;10.624;2023-08-24T10:25:55;27.00;53.40
44723;DHT22;30451;48.638;10.624;2023-08-24T10:28:24;27.00;53.40
44723;DHT22;30451;48.638;10.624;2023-08-24T10:30:51;27.00;53.40
44723;DHT22;30451;48.638;10.624;2023-08-24T10:33:18;27.00;53.40
44723;DHT22;30451;48.638;10.624;2023-08-24T10:35:44;27.10;53.50
44723;DHT22;30451;48.638;10.624;2023-08-24T10:38:28;27.00;53.40
44723;DHT22;30451;48.638;10.624;2023-08-24T10:40:55;27.10;53.50
44723;DHT22;30451;48.638;10.624;2023-08-24T10:43:26;27.10;54.00
44723;DHT22;30451;48.638;10.624;2023-08-24T10:46:01;27.10;53.50
44723;DHT22;30451;48.638;10.624;2023-08-24T10:48:30;27.10;53.60
44723;DHT22;30451;48.638;10.624;2023-08-24T10:51:16;27.10;54.10
44723;DHT22;30451;48.638;10.624;2023-08-24T10:53:45;27.10;54.10
44723;DHT22;30451;48.638;10.624;2023-08-24T10:56:15;27.10;53.60
44723;DHT22;30451;48.638;10.624;2023-08-24T10:58:41;27.10;53.60
44723;DHT22;30451;48.638;10.624;2023-08-24T11:01:13;27.10;53.60
44723;DHT22;30451;48.638;10.624;2023-08-24T11:03:39;27.10;53.70
44723;DHT22;30451;48.638;10.624;2023-08-24T11:06:18;27.10;53.60
44723;DHT22;30451;48.638;10.624;2023-08-24T11:08:45;27.10;53.70
44723;DHT22;30451;48.638;10.624;2023-08-24T11:11:21;27.10;53.60
44723;DHT22;30451;48.638;10.624;2023-08-24T11:14:18;27.10;53.60
44723;DHT22;30451;48.638;10.624;2023-08-24T11:16:57;27.10;53.70
44723;DHT22;30451;48.638;10.624;2023-08-24T11:19:23;27.10;53.70
44723;DHT22;30451;48.638;10.624;2023-08-24T11:21:49;27.10;53.70
44723;DHT22;30451;48.638;10.624;2023-08-24T11:24:16;27.20;53.80
44723;DHT22;30451;48.638;10.624;2023-08-24T11:26:44;27.10;53.70
44723;DHT22;30451;48.638;10.624;2023-08-24T11:29:11;27.20;53.80
44723;DHT22;30451;48.638;10.624;2023-08-24T11:31:37;27.20;53.80
44723;DHT22;30451;48.638;10.624;2023-08-24T11:34:03;27.10;54.30
44723;DHT22;30451;48.638;10.624;2023-08-24T11:36:43;27.20;53.80
44723;DHT22;30451;48.638;10.624;2023-08-24T11:39:13;27.20;53.90
44723;DHT22;30451;48.638;10.624;2023-08-24T11:41:39;27.20;53.80
44723;DHT22;30451;48.638;10.624;2023-08-24T11:44:05;27.20;53.80
44723;DHT22;30451;48.638;10.624;2023-08-24T11:46:31;27.20;53.80
44723;DHT22;30451;48.638;10.624;2023-08-24T11:48:58;27.20;53.90
44723;DHT22;30451;48.638;10.624;2023-08-24T11:51:24;27.20;53.90
44723;DHT22;30451;48.638;10.624;2023-08-24T11:53:50;27.20;53.90
44723;DHT22;30451;48.638;10.624;2023-08-24T11:56:16;27.20;53.90
44723;DHT22;30451;48.638;10.624;2023-08-24T11:58:48;27.20;53.90
44723;DHT22;30451;48.638;10.624;2023-08-24T12:01:14;27.20;53.90
44723;DHT22;30451;48.638;10.624;2023-08-24T12:03:40;27.20;53.90
44723;DHT22;30451;48.638;10.624;2023-08-24T12:06:14;27.20;53.90
44723;DHT22;30451;48.638;10.624;2023-08-24T12:08:41;27.20;53.90
44723;DHT22;30451;48.638;10.624;2023-08-24T12:11:18;27.20;53.90
44723;DHT22;30451;48.638;10.624;2023-08-24T12:13:49;27.20;53.90
44723;DHT22;30451;48.638;10.624;2023-08-24T12:16:19;27.30;54.00
44723;DHT22;30451;48.638;10.624;2023-08-24T12:18:53;27.30;54.00
44723;DHT22;30451;48.638;10.624;2023-08-24T12:21:20;27.30;54.00
44723;DHT22;30451;48.638;10.624;2023-08-24T12:24:15;27.30;54.00
44723;DHT22;30451;48.638;10.624;2023-08-24T12:26:41;27.30;54.00
44723;DHT22;30451;48.638;10.624;2023-08-24T12:29:08;27.30;54.00
44723;DHT22;30451;48.638;10.624;2023-08-24T12:31:35;27.30;54.00
44723;DHT22;30451;48.638;10.624;2023-08-24T12:34:06;27.30;54.00
44723;DHT22;30451;48.638;10.624;2023-08-24T12:36:32;27.30;54.00
44723;DHT22;30451;48.638;10.624;2023-08-24T12:38:58;27.30;54.00
44723;DHT22;30451;48.638;10.624;2023-08-24T12:41:24;27.30;54.00
44723;DHT22;30451;48.638;10.624;2023-08-24T12:43:51;27.30;54.00
44723;DHT22;30451;48.638;10.624;2023-08-24T12:46:17;27.30;54.00
44723;DHT22;30451;48.638;10.624;2023-08-24T12:48:43;27.30;54.00
44723;DHT22;30451;48.638;10.624;2023-08-24T12:51:09;27.30;54.00
44723;DHT22;30451;48.638;10.624;2023-08-24T12:53:34;27.40;54.10
44723;DHT22;30451;48.638;10.624;2023-08-24T12:56:00;27.40;54.10
44723;DHT22;30451;48.638;10.624;2023-08-24T12:58:26;27.40;54.10
44723;DHT22;30451;48.638;10.624;2023-08-24T13:00:51;27.40;54.10
44723;DHT22;30451;48.638;10.624;2023-08-24T13:03:17;27.40;54.10
44723;DHT22;30451;48.638;10.624;2023-08-24T13:05:42;27.40;54.10
44723;DHT22;30451;48.638;10.624;2023-08-24T13:08:08;27.40;54.10
44723;DHT22;30451;48.638;10.624;2023-08-24T13:10:34;27.40;54.10
44723;DHT22;30451;48.638;10.624;2023-08-24T13:13:02;27.40;54.10
44723;DHT22;30451;48.638;10.624;2023-08-24T13:15:28;27.40;54.10
44723;DHT22;30451;48.638;10.624;2023-08-24T13:17:53;27.40;54.10
44723;DHT22;30451;48.638;10.624;2023-08-24T13:20:19;27.40;54.10
44723;DHT22;30451;48.638;10.624;2023-08-24T13:22:45;27.40;54.10
44723;DHT22;30451;48.638;10.624;2023-08-24T13:25:10;27.40;54.00
44723;DHT22;30451;48.638;10.624;2023-08-24T13:27:36;27.40;54.10
44723;DHT22;30451;48.638;10.624;2023-08-24T13:30:02;27.40;54.10
44723;DHT22;30451;48.638;10.624;2023-08-24T13:32:28;27.50;54.10
44723;DHT22;30451;48.638;10.624;2023-08-24T13:34:54;27.50;54.10
44723;DHT22;30451;48.638;10.624;2023-08-24T13:37:21;27.50;54.10
44723;DHT22;30451;48.638;10.624;2023-08-24T13:39:47;27.50;54.10
44723;DHT22;30451;48.638;10.624;2023-08-24T13:42:12;27.50;54.10
44723;DHT22;30451;48.638;10.624;2023-08-24T13:44:39;27.50;54.10
44723;DHT22;30451;48.638;10.624;2023-08-24T13:47:04;27.50;54.10
44723;DHT22;30451;48.638;10.624;2023-08-24T13:49:30;27.50;54.10
44723;DHT22;30451;48.638;10.624;2023-08-24T13:51:56;27.50;54.10
44723;DHT22;30451;48.638;10.624;2023-08-24T13:54:21;27.50;54.10
44723;DHT22;30451;48.638;10.624;2023-08-24T13:56:48;27.50;54.10
44723;DHT22;30451;48.638;10.624;2023-08-24T13:59:15;27.50;54.10
44723;DHT22;30451;48.638;10.624;2023-08-24T14:01:41;27.50;54.10
44723;DHT22;30451;48.638;10.624;2023-08-24T14:04:07;27.50;54.10
44723;DHT22;30451;48.638;10.624;2023-08-24T14:06:33;27.50;54.10
44723;DHT22;30451;48.638;10.624;2023-08-24T14:09:04;27.50;54.10
44723;DHT22;30451;48.638;10.624;2023-08-24T14:11:29;27.50;54.10
44723;DHT22;30451;48.638;10.624;2023-08-24T14:13:56;27.50;54.20
44723;DHT22;30451;48.638;10.624;2023-08-24T14:16:21;27.50;54.10
44723;DHT22;30451;48.638;10.624;2023-08-24T14:18:48;27.50;54.20
44723;DHT22;30451;48.638;10.624;2023-08-24T14:21:13;27.50;54.10
44723;DHT22;30451;48.638;10.624;2023-08-24T14:23:40;27.50;54.20
44723;DHT22;30451;48.638;10.624;2023-08-24T14:26:06;27.50;54.20
44723;DHT22;30451;48.638;10.624;2023-08-24T14:28:51;27.50;54.20
44723;DHT22;30451;48.638;10.624;2023-08-24T14:31:20;27.50;54.20
44723;DHT22;30451;48.638;10.624;2023-08-24T14:33:45;27.50;54.20
44723;DHT22;30451;48.638;10.624;2023-08-24T14:36:11;27.50;54.20
44723;DHT22;30451;48.638;10.624;2023-08-24T14:38:40;27.60;54.30
44723;DHT22;30451;48.638;10.624;2023-08-24T14:41:10;27.50;54.20
44723;DHT22;30451;48.638;10.624;2023-08-24T14:43:37;27.60;54.80
44723;DHT22;30451;48.638;10.624;2023-08-24T14:46:03;27.60;54.30
44723;DHT22;30451;48.638;10.624;2023-08-24T14:48:29;27.60;54.30
44723;DHT22;30451;48.638;10.624;2023-08-24T14:50:55;27.60;54.30
44723;DHT22;30451;48.638;10.624;2023-08-24T14:53:22;27.60;54.30
44723;DHT22;30451;48.638;10.624;2023-08-24T14:55:48;27.60;54.30
44723;DHT22;30451;48.638;10.624;2023-08-24T14:58:14;27.60;54.30
44723;DHT22;30451;48.638;10.624;2023-08-24T15:00:40;27.60;54.30
44723;DHT22;30451;48.638;10.624;2023-08-24T15:03:05;27.60;54.30
44723;DHT22;30451;48.638;10.624;2023-08-24T15:05:36;27.60;54.30
44723;DHT22;30451;48.638;10.624;2023-08-24T15:08:02;27.60;54.30
44723;DHT22;30451;48.638;10.624;2023-08-24T15:10:28;27.60;54.30
44723;DHT22;30451;48.638;10.624;2023-08-24T15:12:53;27.60;54.30
44723;DHT22;30451;48.638;10.624;2023-08-24T15:15:19;27.60;54.30
44723;DHT22;30451;48.638;10.624;2023-08-24T15:17:44;27.60;54.30